Time;durP1;ratioP1;P1;durP2;ratioP2;P2;SDS_P1;SDS_P2;PMS_P1;PMS_P2;Temp;Humidity;BMP_temperature;BMP_pressure;BME280_temperature;BME280_humidity;BME280_pressure;Samples;Min_cycle;Max_cycle;Signal;HPM_P1;HPM_P2
2023/01/25 00:02:16;;;;;;;;;;;;;;;-4.07;72.57;93990.56;2071756;69;20420;-73
2023/01/25 00:04:42;;;;;;;;;;;;;;;-4.03;71.88;93968.34;2071662;69;20053;-74
2023/01/25 00:07:07;;;;;;;;;;;;;;;-4.31;72.44;93971.56;2071546;69;20048;-75
2023/01/25 00:09:33;;;;;;;;;;;;;;;-4.10;73.70;93959.28;2071568;69;20049;-75
2023/01/25 00:11:58;;;;;;;;;;;;;;;-3.96;72.80;93970.66;2071723;69;20041;-74
2023/01/25 00:14:25;;;;;;;;;;;;;;;-4.15;72.93;93954.47;2068389;69;20068;-76
2023/01/25 00:16:51;;;;;;;;;;;;;;;-3.93;72.28;93964.94;2071647;69;20462;-75
2023/01/25 00:19:16;;;;;;;;;;;;;;;-4.04;71.37;93975.84;2071704;69;20037;-76
2023/01/25 00:21:42;;;;;;;;;;;;;;;-3.93;72.52;93975.19;2071665;69;20040;-74
2023/01/25 00:24:10;;;;;;;;;;;;;;;-3.91;73.09;93972.72;2071400;69;20040;-73
2023/01/25 00:26:36;;;;;;;;;;;;;;;-4.22;73.09;93976.91;2071380;69;20056;-72
2023/01/25 00:29:02;;;;;;;;;;;;;;;-4.09;72.42;93965.53;2071582;69;20048;-73
2023/01/25 00:31:34;;;;;;;;;;;;;;;-4.02;72.30;93959.63;2068133;69;20052;-74
2023/01/25 00:34:18;;;;;;;;;;;;;;;-4.05;72.37;93952.31;2071738;69;20460;-75
2023/01/25 00:36:44;;;;;;;;;;;;;;;-4.22;71.95;93952.16;2068231;69;20080;-73
2023/01/25 00:39:12;;;;;;;;;;;;;;;-4.24;71.52;93960.13;2071436;69;20431;-73
2023/01/25 00:41:37;;;;;;;;;;;;;;;-4.16;71.94;93954.97;2068111;69;20134;-74
2023/01/25 00:44:03;;;;;;;;;;;;;;;-4.49;74.36;93956.13;2068207;69;20479;-74
2023/01/25 00:46:28;;;;;;;;;;;;;;;-4.26;72.56;93959.09;2068240;69;20045;-75
2023/01/25 00:48:54;;;;;;;;;;;;;;;-4.33;73.39;93965.03;2068215;69;20133;-74
2023/01/25 00:51:20;;;;;;;;;;;;;;;-4.28;73.01;93964.34;2065372;69;20114;-73
2023/01/25 00:53:46;;;;;;;;;;;;;;;-4.20;72.54;93960.69;2071717;69;20475;-75
2023/01/25 00:56:11;;;;;;;;;;;;;;;-4.29;72.01;93952.59;2071848;69;20070;-75
2023/01/25 00:58:37;;;;;;;;;;;;;;;-4.11;72.34;93949.53;2071614;69;20240;-73
2023/01/25 01:01:07;;;;;;;;;;;;;;;-4.73;74.37;93948.09;2068281;69;20044;-74
2023/01/25 01:03:32;;;;;;;;;;;;;;;-4.44;73.17;93957.44;2068358;69;20051;-73
2023/01/25 01:06:02;;;;;;;;;;;;;;;-4.38;73.19;93950.00;2068184;69;20393;-74
2023/01/25 01:08:27;;;;;;;;;;;;;;;-4.39;72.18;93940.25;2071185;69;20045;-74
2023/01/25 01:11:00;;;;;;;;;;;;;;;-4.45;72.08;93951.16;2071725;69;20072;-73
2023/01/25 01:13:25;;;;;;;;;;;;;;;-4.37;72.56;93955.00;2067903;69;20514;-74
2023/01/25 01:15:51;;;;;;;;;;;;;;;-4.42;72.05;93960.44;2071562;69;20521;-75
2023/01/25 01:18:16;;;;;;;;;;;;;;;-4.42;72.64;93952.94;2068369;69;20036;-74
2023/01/25 01:20:47;;;;;;;;;;;;;;;-4.26;71.79;93961.84;2074888;69;20043;-75
2023/01/25 01:23:12;;;;;;;;;;;;;;;-4.51;71.87;93971.59;2066435;69;20145;-76
2023/01/25 01:25:38;;;;;;;;;;;;;;;-4.50;72.20;93967.59;2068172;69;20084;-77
2023/01/25 01:28:03;;;;;;;;;;;;;;;-4.48;72.44;93982.38;2067770;69;20408;-76
2023/01/25 01:30:30;;;;;;;;;;;;;;;-4.49;72.18;93977.34;2064993;69;20144;-75
2023/01/25 01:32:56;;;;;;;;;;;;;;;-4.57;71.29;93973.53;2067767;69;20048;-74
2023/01/25 01:35:22;;;;;;;;;;;;;;;-4.45;72.24;93972.41;2069983;69;20044;-74
2023/01/25 01:37:48;;;;;;;;;;;;;;;-4.47;71.63;93972.13;2071579;69;20485;-74
2023/01/25 01:40:14;;;;;;;;;;;;;;;-4.52;71.72;93964.59;2074772;69;20075;-75
2023/01/25 01:43:15;;;;;;;;;;;;;;;-4.53;72.39;93963.09;2075344;69;20051;-74
2023/01/25 01:45:48;;;;;;;;;;;;;;;-4.49;72.15;93952.59;2055595;69;20450;-74
2023/01/25 01:48:36;;;;;;;;;;;;;;;-4.54;71.74;93950.56;2060448;69;20058;-75
2023/01/25 01:51:10;;;;;;;;;;;;;;;-4.50;72.95;93946.34;2055108;69;20138;-75
2023/01/25 01:53:37;;;;;;;;;;;;;;;-4.45;73.53;93956.66;2057833;69;20048;-76
2023/01/25 01:56:06;;;;;;;;;;;;;;;-4.30;73.67;93936.59;2055050;69;20495;-74
2023/01/25 01:58:32;;;;;;;;;;;;;;;-4.42;72.63;93928.22;2055047;69;20545;-73
2023/01/25 02:00:58;;;;;;;;;;;;;;;-5.08;75.22;93917.97;2057863;69;20057;-75
2023/01/25 02:03:24;;;;;;;;;;;;;;;-4.75;75.74;93917.59;2052395;69;20098;-74
2023/01/25 02:05:56;;;;;;;;;;;;;;;-4.62;74.67;93922.75;2054903;70;20046;-74
2023/01/25 02:08:22;;;;;;;;;;;;;;;-4.53;73.26;93932.84;2054547;69;20089;-76
2023/01/25 02:10:49;;;;;;;;;;;;;;;-4.50;72.91;93927.13;2054533;69;20137;-73
2023/01/25 02:13:15;;;;;;;;;;;;;;;-4.38;73.04;93925.25;2049001;70;20153;-77
2023/01/25 02:15:43;;;;;;;;;;;;;;;-4.49;73.83;93939.66;2054577;69;20514;-75
2023/01/25 02:18:10;;;;;;;;;;;;;;;-4.52;73.63;93935.09;2054495;69;20053;-75
2023/01/25 02:20:44;;;;;;;;;;;;;;;-4.42;73.62;93933.72;2066667;69;20049;-75
2023/01/25 02:23:14;;;;;;;;;;;;;;;-4.43;73.90;93921.22;2071587;69;20044;-76
2023/01/25 02:25:40;;;;;;;;;;;;;;;-4.62;73.06;93925.50;2068567;69;20040;-76
2023/01/25 02:28:15;;;;;;;;;;;;;;;-4.51;73.48;93924.84;2068318;69;20040;-74
2023/01/25 02:30:42;;;;;;;;;;;;;;;-4.58;72.14;93920.56;2068335;69;20087;-75
2023/01/25 02:33:08;;;;;;;;;;;;;;;-4.69;72.19;93906.66;2071421;69;20045;-75
2023/01/25 02:35:37;;;;;;;;;;;;;;;-4.53;72.26;93917.09;2068701;69;20052;-75
2023/01/25 02:38:03;;;;;;;;;;;;;;;-4.67;73.23;93921.44;2067768;69;20072;-75
2023/01/25 02:40:30;;;;;;;;;;;;;;;-4.53;72.57;93917.09;2067486;69;20045;-73
2023/01/25 02:42:56;;;;;;;;;;;;;;;-4.48;71.90;93912.91;2071496;69;20048;-74
2023/01/25 02:45:26;;;;;;;;;;;;;;;-4.48;72.42;93910.16;2069158;69;20074;-72
2023/01/25 02:47:52;;;;;;;;;;;;;;;-4.48;72.14;93907.41;2075352;69;20044;-73
2023/01/25 02:50:24;;;;;;;;;;;;;;;-4.48;73.05;93908.16;2074448;69;20414;-73
2023/01/25 02:52:50;;;;;;;;;;;;;;;-4.82;74.10;93914.50;2071870;69;20047;-74
2023/01/25 02:55:17;;;;;;;;;;;;;;;-4.60;74.22;93914.78;2068505;69;20139;-74
2023/01/25 02:57:44;;;;;;;;;;;;;;;-4.59;73.82;93921.78;2068582;69;20044;-74
2023/01/25 03:00:10;;;;;;;;;;;;;;;-4.61;73.79;93919.50;2068587;69;20049;-74
2023/01/25 03:02:39;;;;;;;;;;;;;;;-4.59;73.14;93919.03;2068601;69;20048;-73
2023/01/25 03:05:05;;;;;;;;;;;;;;;-4.70;73.54;93922.41;2071979;69;20068;-73
2023/01/25 03:07:30;;;;;;;;;;;;;;;-4.58;73.82;93920.56;2071969;69;20044;-73
2023/01/25 03:09:57;;;;;;;;;;;;;;;-4.50;73.31;93909.88;2068479;69;20197;-75
2023/01/25 03:12:23;;;;;;;;;;;;;;;-4.45;72.88;93907.16;2068747;69;20048;-74
2023/01/25 03:14:49;;;;;;;;;;;;;;;-4.64;72.76;93909.47;2068528;69;20503;-74
2023/01/25 03:17:16;;;;;;;;;;;;;;;-4.67;73.01;93904.22;2071846;69;20506;-74
2023/01/25 03:19:42;;;;;;;;;;;;;;;-4.71;73.07;93904.41;2071909;69;20041;-75
2023/01/25 03:22:08;;;;;;;;;;;;;;;-4.57;73.22;93893.81;2071945;69;20377;-75
2023/01/25 03:24:34;;;;;;;;;;;;;;;-4.65;72.49;93893.47;2068483;69;20044;-75
2023/01/25 03:27:09;;;;;;;;;;;;;;;-4.63;72.16;93886.28;2068420;69;20525;-75
2023/01/25 03:30:01;;;;;;;;;;;;;;;-4.64;72.50;93884.00;2071304;69;20050;-75
2023/01/25 03:32:31;;;;;;;;;;;;;;;-4.86;73.58;93896.25;2071783;69;20049;-75
2023/01/25 03:35:01;;;;;;;;;;;;;;;-4.70;73.83;93888.69;2068310;69;20423;-77
2023/01/25 03:37:30;;;;;;;;;;;;;;;-4.70;72.74;93896.94;2067505;69;20071;-74
2023/01/25 03:39:57;;;;;;;;;;;;;;;-4.68;73.11;93900.69;2064897;69;20061;-73
2023/01/25 03:42:22;;;;;;;;;;;;;;;-4.66;73.65;93900.97;2066547;69;20125;-72
2023/01/25 03:44:53;;;;;;;;;;;;;;;-4.54;72.79;93898.34;2068306;69;20075;-75
2023/01/25 03:47:18;;;;;;;;;;;;;;;-4.82;75.20;93890.53;2071266;69;20044;-75
2023/01/25 03:49:44;;;;;;;;;;;;;;;-4.62;74.11;93887.03;2067483;69;20128;-74
2023/01/25 03:52:10;;;;;;;;;;;;;;;-4.65;73.50;93883.25;2068354;69;20144;-75
2023/01/25 03:54:39;;;;;;;;;;;;;;;-4.58;72.71;93879.31;2069459;69;20047;-74
2023/01/25 03:57:06;;;;;;;;;;;;;;;-4.79;72.80;93886.84;2068484;69;20049;-73
2023/01/25 03:59:39;;;;;;;;;;;;;;;-4.73;72.86;93884.16;2068519;69;20052;-74
2023/01/25 04:02:05;;;;;;;;;;;;;;;-4.67;72.63;93891.22;2068530;69;20061;-76
2023/01/25 04:04:30;;;;;;;;;;;;;;;-4.74;72.60;93882.63;2068255;69;20060;-75
2023/01/25 04:06:56;;;;;;;;;;;;;;;-4.89;73.02;93883.47;2068450;69;20141;-75
2023/01/25 04:09:22;;;;;;;;;;;;;;;-4.84;73.44;93884.03;2071706;69;20041;-74
2023/01/25 04:11:53;;;;;;;;;;;;;;;-4.81;72.98;93889.31;2068239;69;20057;-73
2023/01/25 04:14:18;;;;;;;;;;;;;;;-4.72;72.81;93878.19;2068318;69;20044;-74
2023/01/25 04:16:57;;;;;;;;;;;;;;;-4.73;72.28;93887.66;2068314;69;20043;-74
2023/01/25 04:19:36;;;;;;;;;;;;;;;-4.80;72.00;93876.34;2065893;69;20053;-74
2023/01/25 04:22:03;;;;;;;;;;;;;;;-4.82;71.66;93878.78;2065548;69;20139;-75
2023/01/25 04:24:35;;;;;;;;;;;;;;;-4.70;73.21;93872.19;2068212;69;20072;-72
2023/01/25 04:27:02;;;;;;;;;;;;;;;-4.68;72.43;93870.47;2068557;69;20040;-74
2023/01/25 04:29:31;;;;;;;;;;;;;;;-4.98;72.83;93872.63;2071815;69;20152;-74
2023/01/25 04:32:01;;;;;;;;;;;;;;;-4.88;72.78;93882.25;2071737;69;20040;-74
2023/01/25 04:34:27;;;;;;;;;;;;;;;-4.84;71.89;93884.78;2071613;69;20052;-75
2023/01/25 04:36:53;;;;;;;;;;;;;;;-4.94;72.38;93886.91;2068200;69;20044;-75
2023/01/25 04:39:18;;;;;;;;;;;;;;;-4.98;73.19;93891.88;2071509;69;20074;-76
2023/01/25 04:41:44;;;;;;;;;;;;;;;-4.92;73.17;93884.44;2071967;69;20051;-74
2023/01/25 04:44:09;;;;;;;;;;;;;;;-4.90;72.29;93878.47;2070435;69;20496;-75
2023/01/25 04:46:36;;;;;;;;;;;;;;;-5.23;73.73;93876.06;2075008;69;20044;-75
2023/01/25 04:49:01;;;;;;;;;;;;;;;-5.09;74.00;93879.97;2071773;69;20052;-74
2023/01/25 04:51:27;;;;;;;;;;;;;;;-5.06;74.16;93884.53;2071751;69;20040;-74
2023/01/25 04:53:52;;;;;;;;;;;;;;;-4.92;73.34;93878.94;2071638;69;20055;-76
2023/01/25 04:56:18;;;;;;;;;;;;;;;-4.93;72.87;93887.69;2069698;69;20198;-76
2023/01/25 04:58:51;;;;;;;;;;;;;;;-4.87;72.56;93889.22;2068384;69;20044;-78
2023/01/25 05:01:16;;;;;;;;;;;;;;;-4.78;72.25;93882.09;2068348;69;20040;-75
2023/01/25 05:03:42;;;;;;;;;;;;;;;-4.96;71.74;93886.63;2068346;69;20103;-76
2023/01/25 05:06:18;;;;;;;;;;;;;;;-5.18;73.75;93880.88;2068423;69;20052;-77
2023/01/25 05:08:43;;;;;;;;;;;;;;;-5.01;74.00;93881.09;2068285;69;20499;-76
2023/01/25 05:11:09;;;;;;;;;;;;;;;-4.83;73.09;93891.03;2068376;69;20036;-76
2023/01/25 05:13:54;;;;;;;;;;;;;;;-4.90;72.67;93890.22;2065978;69;20128;-75
2023/01/25 05:16:27;;;;;;;;;;;;;;;-4.94;73.85;93888.91;2068523;69;20497;-74
2023/01/25 05:18:56;;;;;;;;;;;;;;;-4.90;73.07;93886.72;2072230;69;20091;-74
2023/01/25 05:22:21;;;;;;;;;;;;;;;;;;;;;
2023/01/25 05:24:24;;;;;;;;;;;;;;;-5.06;73.67;93879.03;2070246;69;20057;-74
2023/01/25 05:26:59;;;;;;;;;;;;;;;-4.99;74.04;93875.88;2068815;69;20040;-76
2023/01/25 05:29:27;;;;;;;;;;;;;;;-4.90;73.79;93871.00;2068838;69;20057;-77
2023/01/25 05:32:01;;;;;;;;;;;;;;;-4.86;72.57;93868.00;2072233;69;20063;-77
2023/01/25 05:34:27;;;;;;;;;;;;;;;-4.78;72.54;93871.09;2068149;69;20132;-77
2023/01/25 05:36:53;;;;;;;;;;;;;;;-4.78;72.68;93876.59;2065268;69;20137;-75
2023/01/25 05:39:19;;;;;;;;;;;;;;;-4.75;72.31;93879.13;2068758;69;20400;-74
2023/01/25 05:41:46;;;;;;;;;;;;;;;-4.81;72.68;93872.06;2065593;69;20047;-76
2023/01/25 05:44:12;;;;;;;;;;;;;;;-4.81;72.94;93863.81;2066051;69;20053;-73
2023/01/25 05:46:43;;;;;;;;;;;;;;;-5.09;73.48;93869.00;2066171;69;20487;-73
2023/01/25 05:49:08;;;;;;;;;;;;;;;-4.84;73.11;93875.78;2068251;69;20468;-73
2023/01/25 05:51:34;;;;;;;;;;;;;;;-5.11;74.66;93875.72;2068273;69;20165;-76
2023/01/25 05:54:01;;;;;;;;;;;;;;;-5.12;74.42;93887.94;2068178;69;20476;-74
2023/01/25 05:56:27;;;;;;;;;;;;;;;-4.96;73.22;93889.38;2068237;69;20072;-75
2023/01/25 05:58:53;;;;;;;;;;;;;;;-4.95;72.77;93890.91;2067739;69;20048;-77
2023/01/25 06:01:19;;;;;;;;;;;;;;;-4.94;72.73;93886.16;2068348;69;20140;-77
2023/01/25 06:03:50;;;;;;;;;;;;;;;-5.01;74.95;93892.81;2068185;69;20199;-76
2023/01/25 06:06:16;;;;;;;;;;;;;;;-5.20;74.43;93886.84;2065671;69;20548;-79
2023/01/25 06:08:42;;;;;;;;;;;;;;;-5.22;75.20;93888.56;2067655;69;20520;-74
2023/01/25 06:11:09;;;;;;;;;;;;;;;-4.97;73.78;93889.88;2066991;69;20143;-74
2023/01/25 06:13:38;;;;;;;;;;;;;;;-5.00;72.67;93888.81;2068221;69;20060;-73
2023/01/25 06:16:03;;;;;;;;;;;;;;;-4.96;72.64;93883.88;2067829;69;20506;-73
2023/01/25 06:18:55;;;;;;;;;;;;;;;-4.97;73.72;93885.13;2062403;69;20128;-75
2023/01/25 06:21:37;;;;;;;;;;;;;;;-4.82;73.59;93876.81;2062344;69;20474;-74
2023/01/25 06:24:03;;;;;;;;;;;;;;;-5.29;74.37;93880.75;2065260;69;20049;-73
2023/01/25 06:26:29;;;;;;;;;;;;;;;-5.09;73.82;93880.72;2064810;69;20044;-78
2023/01/25 06:28:54;;;;;;;;;;;;;;;-4.97;73.67;93892.63;2065357;69;20121;-77
2023/01/25 06:31:20;;;;;;;;;;;;;;;-4.95;73.00;93885.41;2065375;69;20048;-75
2023/01/25 06:33:49;;;;;;;;;;;;;;;-4.90;73.09;93884.72;2067484;69;20099;-76
2023/01/25 06:36:15;;;;;;;;;;;;;;;-4.92;73.06;93884.44;2065343;69;20128;-76
2023/01/25 06:38:41;;;;;;;;;;;;;;;-4.98;73.52;93888.38;2070381;69;20044;-76
2023/01/25 06:41:08;;;;;;;;;;;;;;;-4.91;72.90;93876.94;2071972;69;20071;-76
2023/01/25 06:43:34;;;;;;;;;;;;;;;-4.91;72.76;93872.22;2071599;69;20068;-77
2023/01/25 06:46:00;;;;;;;;;;;;;;;-5.21;73.67;93873.59;2071889;69;20392;-77
2023/01/25 06:48:26;;;;;;;;;;;;;;;-5.01;74.24;93867.34;2071888;69;20064;-74
2023/01/25 06:50:58;;;;;;;;;;;;;;;-4.88;73.62;93868.50;2071853;69;20044;-74
2023/01/25 06:53:25;;;;;;;;;;;;;;;-5.06;74.79;93863.31;2071982;69;20065;-76
2023/01/25 06:56:11;;;;;;;;;;;;;;;-5.16;74.78;93876.41;2072026;69;20093;-75
2023/01/25 06:58:38;;;;;;;;;;;;;;;-4.90;73.66;93867.50;2071904;69;20040;-77
2023/01/25 07:01:05;;;;;;;;;;;;;;;-4.94;73.29;93862.19;2071528;69;20420;-75
2023/01/25 07:03:31;;;;;;;;;;;;;;;-5.45;74.57;93868.28;2071881;69;20053;-75
2023/01/25 07:06:00;;;;;;;;;;;;;;;-5.07;74.36;93861.03;2071455;69;20044;-73
2023/01/25 07:08:26;;;;;;;;;;;;;;;-5.00;73.64;93855.13;2071341;69;20079;-76
2023/01/25 07:10:56;;;;;;;;;;;;;;;-4.94;73.30;93853.97;2071824;69;20128;-75
2023/01/25 07:13:22;;;;;;;;;;;;;;;-4.84;72.69;93846.31;2068440;69;20112;-75
2023/01/25 07:15:55;;;;;;;;;;;;;;;-4.97;73.84;93846.69;2068460;69;20143;-76
2023/01/25 07:18:21;;;;;;;;;;;;;;;-4.87;73.63;93848.03;2071919;69;20127;-77
2023/01/25 07:20:46;;;;;;;;;;;;;;;-4.83;73.31;93833.34;2071900;69;20045;-77
2023/01/25 07:23:12;;;;;;;;;;;;;;;-4.96;75.30;93828.19;2071867;69;20044;-76
2023/01/25 07:25:42;;;;;;;;;;;;;;;-4.85;74.19;93831.09;2071836;69;20076;-75
2023/01/25 07:28:07;;;;;;;;;;;;;;;-4.80;73.09;93832.38;2072171;69;20140;-75
2023/01/25 07:30:32;;;;;;;;;;;;;;;-5.35;74.93;93833.25;2071377;69;20041;-75
2023/01/25 07:32:58;;;;;;;;;;;;;;;-4.90;74.20;93827.03;2074105;69;20044;-76
2023/01/25 07:35:23;;;;;;;;;;;;;;;-4.83;74.12;93827.84;2074366;69;20037;-76
2023/01/25 07:37:49;;;;;;;;;;;;;;;-4.97;74.00;93819.22;2071824;69;20110;-75
2023/01/25 07:40:15;;;;;;;;;;;;;;;-4.83;73.12;93822.34;2071710;69;20050;-74
2023/01/25 07:42:41;;;;;;;;;;;;;;;-5.01;74.26;93828.91;2071863;69;20044;-78
2023/01/25 07:45:11;;;;;;;;;;;;;;;-4.90;73.59;93821.53;2068181;69;20146;-77
2023/01/25 07:47:36;;;;;;;;;;;;;;;-4.79;72.69;93828.38;2071363;69;20056;-76
2023/01/25 07:50:02;;;;;;;;;;;;;;;-4.92;73.37;93798.53;2065399;69;20056;-77
2023/01/25 07:52:27;;;;;;;;;;;;;;;-4.87;72.94;93820.56;2072098;69;20037;-78
2023/01/25 07:54:52;;;;;;;;;;;;;;;-4.75;73.20;93818.69;2071200;69;20192;-75
2023/01/25 07:57:19;;;;;;;;;;;;;;;-4.71;73.19;93808.25;2071785;69;20055;-75
2023/01/25 07:59:44;;;;;;;;;;;;;;;-5.22;75.17;93817.19;2059343;69;20103;-75
2023/01/25 08:02:10;;;;;;;;;;;;;;;-4.88;74.38;93810.81;2064120;69;20065;-73
2023/01/25 08:04:37;;;;;;;;;;;;;;;-4.83;73.57;93812.09;2064674;69;20127;-77
2023/01/25 08:07:03;;;;;;;;;;;;;;;-4.94;74.77;93803.78;2064918;69;20148;-74
2023/01/25 08:09:28;;;;;;;;;;;;;;;-4.74;73.79;93809.19;2064901;69;20061;-75
2023/01/25 08:11:54;;;;;;;;;;;;;;;-4.78;74.03;93802.41;2064932;69;20065;-74
2023/01/25 08:14:19;;;;;;;;;;;;;;;-4.70;73.45;93811.75;2064964;69;20045;-73
2023/01/25 08:16:45;;;;;;;;;;;;;;;-4.54;72.99;93807.63;2065546;69;20163;-74
2023/01/25 08:19:10;;;;;;;;;;;;;;;-4.52;72.40;93799.66;2064462;69;20411;-74
2023/01/25 08:21:36;;;;;;;;;;;;;;;-4.64;73.02;93798.81;2064061;69;20165;-76
2023/01/25 08:24:08;;;;;;;;;;;;;;;-4.61;72.66;93795.09;2064818;69;20049;-77
2023/01/25 08:26:34;;;;;;;;;;;;;;;-4.57;72.93;93797.63;2064854;69;20156;-74
2023/01/25 08:28:59;;;;;;;;;;;;;;;-4.58;72.73;93788.63;2064889;69;20045;-74
2023/01/25 08:31:26;;;;;;;;;;;;;;;-4.46;72.90;93790.22;2064835;69;20071;-73
2023/01/25 08:33:52;;;;;;;;;;;;;;;-4.35;73.06;93776.56;2064861;69;20053;-75
2023/01/25 08:36:18;;;;;;;;;;;;;;;-4.37;72.82;93776.28;2064979;69;20045;-72
2023/01/25 08:38:47;;;;;;;;;;;;;;;-4.40;72.96;93758.03;2064770;69;20049;-74
2023/01/25 08:41:13;;;;;;;;;;;;;;;-4.74;73.87;93776.22;2064818;69;20063;-74
2023/01/25 08:43:38;;;;;;;;;;;;;;;-4.29;74.19;93775.84;2064562;69;20053;-74
2023/01/25 08:46:04;;;;;;;;;;;;;;;-3.84;74.83;93768.66;2063611;69;20140;-73
2023/01/25 08:48:29;;;;;;;;;;;;;;;-3.31;74.97;93769.91;2064827;69;20513;-75
2023/01/25 08:50:55;;;;;;;;;;;;;;;-3.03;75.35;93761.72;2064753;69;20068;-78
2023/01/25 08:53:20;;;;;;;;;;;;;;;-2.59;74.41;93752.78;2064773;69;20045;-79
2023/01/25 08:55:46;;;;;;;;;;;;;;;-2.43;75.79;93762.34;2063917;69;20049;-75
2023/01/25 08:58:12;;;;;;;;;;;;;;;-1.99;73.13;93749.03;2064788;69;20150;-73
2023/01/25 09:00:39;;;;;;;;;;;;;;;-1.74;72.33;93759.03;2061557;69;20041;-73
2023/01/25 09:03:05;;;;;;;;;;;;;;;-1.58;71.88;93740.91;2064424;69;20384;-74
2023/01/25 09:05:32;;;;;;;;;;;;;;;-1.05;73.38;93750.00;2063601;69;20052;-73
2023/01/25 09:07:58;;;;;;;;;;;;;;;-0.69;72.07;93736.94;2064800;69;20502;-73
2023/01/25 09:10:23;;;;;;;;;;;;;;;-0.43;70.59;93738.53;2066861;69;20073;-75
2023/01/25 09:12:50;;;;;;;;;;;;;;;-0.24;69.96;93739.41;2063806;69;20407;-75
2023/01/25 09:15:16;;;;;;;;;;;;;;;-0.70;69.99;93729.19;2064423;69;20168;-74
2023/01/25 09:17:41;;;;;;;;;;;;;;;-0.43;68.96;93727.47;2064662;69;20511;-74
2023/01/25 09:20:07;;;;;;;;;;;;;;;-1.16;68.64;93731.44;2064805;69;20096;-75
2023/01/25 09:22:33;;;;;;;;;;;;;;;-0.92;69.65;93728.03;2064737;69;20052;-76
2023/01/25 09:25:01;;;;;;;;;;;;;;;0.05;68.51;93726.09;2061133;69;20564;-75
2023/01/25 09:27:26;;;;;;;;;;;;;;;0.09;67.48;93721.00;2063558;69;20042;-75
2023/01/25 09:29:53;;;;;;;;;;;;;;;0.07;66.21;93718.75;2064804;69;20564;-77
2023/01/25 09:32:18;;;;;;;;;;;;;;;0.83;66.50;93713.41;2066883;69;20408;-77
2023/01/25 09:34:53;;;;;;;;;;;;;;;1.21;65.16;93705.84;2064404;69;20057;-75
2023/01/25 09:37:19;;;;;;;;;;;;;;;1.41;65.69;93707.31;2064916;69;20048;-75
2023/01/25 09:39:44;;;;;;;;;;;;;;;1.39;64.69;93705.06;2064700;69;20149;-76
2023/01/25 09:42:19;;;;;;;;;;;;;;;1.93;65.16;93708.78;2061440;69;20051;-74
2023/01/25 09:44:45;;;;;;;;;;;;;;;1.97;62.85;93698.09;2064840;69;20049;-75
2023/01/25 09:47:29;;;;;;;;;;;;;;;1.62;61.48;93691.59;2064726;69;20054;-76
2023/01/25 09:50:01;;;;;;;;;;;;;;;1.92;60.97;93696.16;2061466;69;20515;-76
2023/01/25 09:52:52;;;;;;;;;;;;;;;2.83;60.57;93688.41;2064836;69;20045;-76
2023/01/25 09:55:19;;;;;;;;;;;;;;;2.66;57.85;93679.69;2061249;69;20499;-76
2023/01/25 09:57:46;;;;;;;;;;;;;;;3.09;58.31;93682.06;2064835;69;20136;-77
2023/01/25 10:00:16;;;;;;;;;;;;;;;3.30;57.12;93676.56;2064863;69;20441;-74
2023/01/25 10:02:48;;;;;;;;;;;;;;;3.91;56.28;93674.38;2065155;69;20116;-75
2023/01/25 10:05:16;;;;;;;;;;;;;;;3.69;55.28;93672.13;2065390;69;20465;-76
2023/01/25 10:07:49;;;;;;;;;;;;;;;2.61;56.15;93677.72;2065273;69;20052;-76
2023/01/25 10:10:23;;;;;;;;;;;;;;;3.59;56.58;93662.75;2067472;69;20085;-76
2023/01/25 10:12:49;;;;;;;;;;;;;;;4.50;54.33;93660.69;2065256;69;20052;-76
2023/01/25 10:15:19;;;;;;;;;;;;;;;4.38;53.49;93644.78;2065294;69;20049;-75
2023/01/25 10:17:50;;;;;;;;;;;;;;;4.88;53.17;93648.22;2065288;69;20116;-75
2023/01/25 10:20:32;;;;;;;;;;;;;;;5.60;52.58;93643.25;2065352;69;20140;-75
2023/01/25 10:23:16;;;;;;;;;;;;;;;5.68;50.38;93623.72;2065616;69;20052;-76
2023/01/25 10:25:50;;;;;;;;;;;;;;;4.30;52.87;93630.78;2065312;69;20049;-76
2023/01/25 10:28:15;;;;;;;;;;;;;;;3.92;55.12;93611.78;2065310;69;20064;-76
2023/01/25 10:31:03;;;;;;;;;;;;;;;5.49;51.61;93621.25;2067637;69;20420;-75
2023/01/25 10:33:31;;;;;;;;;;;;;;;5.74;50.01;93613.09;2065273;69;20097;-75
2023/01/25 10:36:00;;;;;;;;;;;;;;;6.82;49.26;93610.94;2065363;69;20045;-77
2023/01/25 10:38:28;;;;;;;;;;;;;;;6.40;49.14;93607.88;2065116;69;20424;-75
2023/01/25 10:40:57;;;;;;;;;;;;;;;5.96;49.83;93606.06;2061856;69;20140;-75
2023/01/25 10:43:22;;;;;;;;;;;;;;;5.68;49.97;93604.16;2065293;69;20106;-75
2023/01/25 10:45:49;;;;;;;;;;;;;;;7.37;47.04;93596.88;2067367;69;20141;-76
2023/01/25 10:48:34;;;;;;;;;;;;;;;6.82;46.81;93602.53;2065162;69;20128;-78
2023/01/25 10:50:59;;;;;;;;;;;;;;;7.96;47.40;93589.22;2064061;69;20108;-78
2023/01/25 10:53:28;;;;;;;;;;;;;;;7.29;46.13;93581.47;2064978;69;20493;-77
2023/01/25 10:56:12;;;;;;;;;;;;;;;7.58;46.16;93579.03;2067387;69;20140;-76
2023/01/25 10:58:45;;;;;;;;;;;;;;;9.26;43.97;93573.88;2065220;69;20049;-75
2023/01/25 11:01:12;;;;;;;;;;;;;;;9.86;42.63;93577.91;2065097;69;20053;-77
2023/01/25 11:03:45;;;;;;;;;;;;;;;9.82;43.37;93555.09;2065074;69;20147;-77
2023/01/25 11:06:11;;;;;;;;;;;;;;;10.54;40.23;93564.06;2065019;69;20447;-77
2023/01/25 11:08:38;;;;;;;;;;;;;;;10.65;39.72;93557.09;2065008;69;20069;-76
2023/01/25 11:11:12;;;;;;;;;;;;;;;11.62;39.26;93557.00;2065191;69;20053;-75
2023/01/25 11:13:39;;;;;;;;;;;;;;;13.45;35.64;93545.97;2065322;69;20037;-76
2023/01/25 11:16:19;;;;;;;;;;;;;;;13.93;34.04;93539.06;2065102;69;20118;-76
2023/01/25 11:18:52;;;;;;;;;;;;;;;13.11;34.61;93547.31;2065409;69;20068;-76
2023/01/25 11:21:21;;;;;;;;;;;;;;;12.28;36.45;93539.69;2065156;69;20042;-76
2023/01/25 11:24:03;;;;;;;;;;;;;;;15.11;32.43;93534.00;2065083;69;20097;-76
2023/01/25 11:26:29;;;;;;;;;;;;;;;16.84;31.40;93532.00;2065229;69;20042;-74
2023/01/25 11:29:06;;;;;;;;;;;;;;;17.42;30.79;93529.88;2065181;69;20049;-76
2023/01/25 11:31:32;;;;;;;;;;;;;;;18.40;28.30;93529.50;2065040;69;20053;-77
2023/01/25 11:33:57;;;;;;;;;;;;;;;16.47;30.10;93524.41;2064978;69;20053;-76
2023/01/25 11:36:39;;;;;;;;;;;;;;;17.05;28.06;93521.66;2065161;69;20250;-76
2023/01/25 11:39:05;;;;;;;;;;;;;;;17.48;30.58;93515.94;2064902;69;20052;-77
2023/01/25 11:41:39;;;;;;;;;;;;;;;18.58;28.33;93506.03;2065078;69;20037;-78
2023/01/25 11:44:18;;;;;;;;;;;;;;;17.79;26.30;93501.06;2065030;69;20057;-78
2023/01/25 11:46:53;;;;;;;;;;;;;;;17.89;27.11;93500.81;2065062;69;20075;-76
2023/01/25 11:49:33;;;;;;;;;;;;;;;18.71;28.08;93496.66;2065188;69;20507;-75
2023/01/25 11:52:15;;;;;;;;;;;;;;;18.23;28.08;93493.09;2066728;69;20536;-76
2023/01/25 11:54:44;;;;;;;;;;;;;;;16.91;29.34;93491.16;2068282;69;20041;-77
2023/01/25 11:57:15;;;;;;;;;;;;;;;18.58;26.87;93481.09;2068448;69;20131;-78
2023/01/25 11:59:44;;;;;;;;;;;;;;;21.33;25.51;93484.53;2068449;69;20045;-77
2023/01/25 12:02:18;;;;;;;;;;;;;;;18.69;25.89;93473.75;2068417;69;20517;-76
2023/01/25 12:04:50;;;;;;;;;;;;;;;15.82;28.04;93471.97;2068541;69;20518;-75
2023/01/25 12:07:36;;;;;;;;;;;;;;;14.03;30.15;93471.00;2068351;69;20041;-78
2023/01/25 12:10:14;;;;;;;;;;;;;;;12.81;32.07;93464.84;2068234;69;20053;-75
2023/01/25 12:12:40;;;;;;;;;;;;;;;12.38;33.47;93450.03;2068294;69;20119;-77
2023/01/25 12:15:24;;;;;;;;;;;;;;;11.11;34.58;93454.75;2068386;69;20489;-78
2023/01/25 12:18:05;;;;;;;;;;;;;;;10.76;35.88;93437.47;2068590;69;20041;-76
2023/01/25 12:20:34;;;;;;;;;;;;;;;10.10;36.68;93431.97;2068367;69;20048;-77
2023/01/25 12:22:59;;;;;;;;;;;;;;;9.02;38.58;93423.81;2068400;69;20124;-75
2023/01/25 12:25:32;;;;;;;;;;;;;;;6.30;44.27;93415.50;2068100;69;20278;-78
2023/01/25 12:28:05;;;;;;;;;;;;;;;7.08;43.08;93414.47;2068267;69;20575;-75
2023/01/25 12:30:31;;;;;;;;;;;;;;;5.89;45.39;93418.78;2068356;69;20045;-76
2023/01/25 12:33:04;;;;;;;;;;;;;;;6.57;44.05;93415.75;2068317;69;20045;-75
2023/01/25 12:35:40;;;;;;;;;;;;;;;6.54;44.38;93411.28;2068369;69;20064;-75
2023/01/25 12:38:12;;;;;;;;;;;;;;;6.38;45.05;93414.72;2068402;69;20459;-75
2023/01/25 12:40:46;;;;;;;;;;;;;;;6.29;45.18;93399.28;2068245;69;20041;-77
2023/01/25 12:43:20;;;;;;;;;;;;;;;5.08;47.97;93390.59;2068277;69;20053;-77
2023/01/25 12:45:47;;;;;;;;;;;;;;;5.51;46.67;93384.06;2068398;69;20144;-75
2023/01/25 12:48:35;;;;;;;;;;;;;;;4.80;48.52;93383.91;2068716;69;20095;-74
2023/01/25 12:51:01;;;;;;;;;;;;;;;5.22;47.76;93377.97;2068299;69;20249;-75
2023/01/25 12:53:31;;;;;;;;;;;;;;;4.70;49.10;93371.06;2068219;69;20151;-75
2023/01/25 12:55:56;;;;;;;;;;;;;;;4.28;49.67;93371.38;2068344;69;20065;-75
2023/01/25 12:58:29;;;;;;;;;;;;;;;4.21;49.86;93366.50;2062080;69;20056;-75
2023/01/25 13:01:07;;;;;;;;;;;;;;;4.10;51.01;93367.59;2068321;69;20049;-74